createdAt,value
2022-08-20T00:00:15.008Z,95838.03
2022-08-20T00:02:52.922Z,95828.13
2022-08-20T00:05:34.439Z,95826.59
2022-08-20T00:08:02.481Z,95831.25
2022-08-20T00:10:30.717Z,95825.81
2022-08-20T00:12:57.698Z,95822.09
2022-08-20T00:15:29.538Z,95820.91
2022-08-20T00:17:57.555Z,95822.28
2022-08-20T00:20:28.430Z,95821.25
2022-08-20T00:22:55.890Z,95823.50
2022-08-20T00:25:23.389Z,95812.88
2022-08-20T00:27:49.969Z,95814.53
2022-08-20T00:30:16.836Z,95817.44
2022-08-20T00:32:56.556Z,95815.22
2022-08-20T00:35:26.804Z,95815.69
2022-08-20T00:37:56.346Z,95821.06
2022-08-20T00:40:30.927Z,95819.75
2022-08-20T00:42:59.919Z,95815.91
2022-08-20T00:45:33.158Z,95815.69
2022-08-20T00:48:00.094Z,95820.00
2022-08-20T00:50:34.075Z,95817.44
2022-08-20T00:53:03.836Z,95820.34
2022-08-20T00:55:32.153Z,95814.53
2022-08-20T00:58:05.267Z,95821.06
2022-08-20T01:00:58.575Z,95812.78
2022-08-20T01:03:25.204Z,95816.63
2022-08-20T01:05:52.912Z,95812.56
2022-08-20T01:08:23.326Z,95816.88
2022-08-20T01:10:51.232Z,95810.34
2022-08-20T01:13:22.922Z,95811.97
2022-08-20T01:15:53.854Z,95815.81
2022-08-20T01:18:26.042Z,95813.72
2022-08-20T01:20:57.640Z,95808.81
2022-08-20T01:23:41.756Z,95806.50
2022-08-20T01:26:17.023Z,95810.69
2022-08-20T01:28:45.350Z,95810.13
2022-08-20T01:31:19.307Z,95812.31
2022-08-20T01:33:47.184Z,95804.06
2022-08-20T01:36:16.694Z,95809.16
2022-08-20T01:38:54.685Z,95818.72
2022-08-20T01:41:30.101Z,95820.69
2022-08-20T01:43:58.536Z,95814.88
2022-08-20T01:46:42.326Z,95815.47
2022-08-20T01:49:23.284Z,95816.53
2022-08-20T01:51:52.467Z,95818.47
2022-08-20T01:54:20.088Z,95819.19
2022-08-20T01:57:02.121Z,95814.72
2022-08-20T01:59:29.062Z,95811.47
2022-08-20T02:01:59.250Z,95816.94
2022-08-20T02:04:26.491Z,95807.28
2022-08-20T02:06:57.842Z,95813.09
2022-08-20T02:09:27.849Z,95815.78
2022-08-20T02:11:54.490Z,95806.56
2022-08-20T02:14:21.593Z,95794.13
2022-08-20T02:16:54.555Z,95793.91
2022-08-20T02:19:41.095Z,95792.59
2022-08-20T02:22:18.744Z,95795.28
2022-08-20T02:24:45.313Z,95788.78
2022-08-20T02:27:14.628Z,95783.88
2022-08-20T02:29:41.738Z,95790.97
2022-08-20T02:32:24.948Z,95787.50
2022-08-20T02:34:54.863Z,95798.78
2022-08-20T02:37:21.370Z,95796.34
2022-08-20T02:39:48.015Z,95788.41
2022-08-20T02:42:14.576Z,95786.22
2022-08-20T02:44:41.083Z,95777.72
2022-08-20T02:47:08.266Z,95777.97
2022-08-20T02:49:34.990Z,95777.47
2022-08-20T02:52:01.493Z,95786.09
2022-08-20T02:54:28.080Z,95795.69
2022-08-20T02:56:54.584Z,95782.94
2022-08-20T02:59:21.097Z,95787.75
2022-08-20T03:01:47.768Z,95779.44
2022-08-20T03:04:26.077Z,95777.13
2022-08-20T03:06:52.720Z,95778.75
2022-08-20T03:09:19.308Z,95780.97
2022-08-20T03:11:45.921Z,95785.63
2022-08-20T03:14:12.527Z,95788.88
2022-08-20T03:16:39.044Z,95791.34
2022-08-20T03:19:05.547Z,95793.78
2022-08-20T03:21:32.078Z,95797.97
2022-08-20T03:23:58.565Z,95792.38
2022-08-20T03:26:25.101Z,95792.38
2022-08-20T03:28:51.609Z,95798.44
2022-08-20T03:31:18.143Z,95791.91
2022-08-20T03:33:52.681Z,95785.16
2022-08-20T03:36:20.889Z,95795.88
2022-08-20T03:38:54.688Z,95795.31
2022-08-20T03:41:21.256Z,95797.97
2022-08-20T03:43:47.747Z,95802.97
2022-08-20T03:46:21.975Z,95795.88
2022-08-20T03:48:50.019Z,95795.44
2022-08-20T03:51:22.954Z,95794.91
2022-08-20T03:53:49.439Z,95794.69
2022-08-20T03:56:15.951Z,95794.09
2022-08-20T03:58:42.604Z,95797.09
2022-08-20T04:01:36.731Z,95797.00
2022-08-20T04:03:55.835Z,95795.19
2022-08-20T04:06:22.358Z,95783.19
2022-08-20T04:08:48.856Z,95786.06
2022-08-20T04:11:15.327Z,95783.25
2022-08-20T04:14:01.819Z,95794.47
2022-08-20T04:16:28.849Z,95792.38
2022-08-20T04:19:01.601Z,95794.59
2022-08-20T04:21:32.529Z,95799.25
2022-08-20T04:24:01.568Z,95804.94
2022-08-20T04:26:28.359Z,95803.31
2022-08-20T04:28:54.917Z,95802.63
2022-08-20T04:31:24.916Z,95796.78
2022-08-20T04:33:51.747Z,95802.84
2022-08-20T04:36:18.259Z,95795.41
2022-08-20T04:38:49.770Z,95804.72
2022-08-20T04:41:22.753Z,95797.84
2022-08-20T04:43:49.919Z,95808.56
2022-08-20T04:46:16.468Z,95804.84
2022-08-20T04:48:42.958Z,95807.28
2022-08-20T04:51:23.459Z,95805.41
2022-08-20T04:53:53.415Z,95799.81
2022-08-20T04:56:32.960Z,95808.44
2022-08-20T04:59:01.491Z,95814.25
2022-08-20T05:01:28.930Z,95813.94
2022-08-20T05:03:57.671Z,95817.78
2022-08-20T05:06:31.569Z,95821.00
2022-08-20T05:09:00.190Z,95829.03
2022-08-20T05:11:35.013Z,95825.09
2022-08-20T05:14:05.764Z,95826.47
2022-08-20T05:16:32.457Z,95835.69
2022-08-20T05:18:58.937Z,95830.91
2022-08-20T05:21:25.451Z,95837.56
2022-08-20T05:23:51.935Z,95839.66
2022-08-20T05:26:18.508Z,95834.28
2022-08-20T05:28:54.459Z,95834.41
2022-08-20T05:31:31.648Z,95847.44
2022-08-20T05:34:12.460Z,95849.06
2022-08-20T05:36:42.682Z,95855.94
2022-08-20T05:39:10.544Z,95857.31
2022-08-20T05:41:38.885Z,95860.25
2022-08-20T05:44:07.216Z,95855.00
2022-08-20T05:46:33.756Z,95867.75
2022-08-20T05:49:00.393Z,95857.41
2022-08-20T05:51:28.251Z,95856.94
2022-08-20T05:53:55.261Z,95857.56
2022-08-20T05:56:26.673Z,95859.25
2022-08-20T05:58:53.688Z,95870.22
2022-08-20T06:01:20.252Z,95859.34
2022-08-20T06:03:46.795Z,95863.66
2022-08-20T06:06:18.286Z,95869.44
2022-08-20T06:09:00.152Z,95857.88
2022-08-20T06:11:26.700Z,95859.88
2022-08-20T06:13:53.230Z,95864.06
2022-08-20T06:16:19.761Z,95859.75
2022-08-20T06:18:47.295Z,95858.28
2022-08-20T06:21:14.038Z,95861.03
2022-08-20T06:23:40.529Z,95858.13
2022-08-20T06:26:24.799Z,95858.25
2022-08-20T06:28:56.581Z,95861.38
2022-08-20T06:31:23.072Z,95869.63
2022-08-20T06:33:49.580Z,95870.69
2022-08-20T06:36:18.062Z,95865.22
2022-08-20T06:38:45.954Z,95867.56
2022-08-20T06:41:12.486Z,95864.41
2022-08-20T06:43:38.976Z,95869.53
2022-08-20T06:46:05.528Z,95869.91
2022-08-20T06:48:32.066Z,95874.09
2022-08-20T06:51:10.094Z,95872.44
2022-08-20T06:53:39.778Z,95882.94
2022-08-20T06:56:06.475Z,95885.03
2022-08-20T06:58:38.797Z,95888.53
2022-08-20T07:07:25.989Z,95874.78
2022-08-20T07:10:08.897Z,95879.38
2022-08-20T07:12:35.941Z,95873.75
2022-08-20T07:15:07.774Z,95874.56
2022-08-20T07:17:34.614Z,95885.28
2022-08-20T07:20:10.981Z,95883.28
2022-08-20T07:22:37.469Z,95884.38
2022-08-20T07:25:07.059Z,95887.38
2022-08-20T07:27:35.002Z,95875.88
2022-08-20T07:30:01.992Z,95877.19
2022-08-20T07:32:28.973Z,95874.25
2022-08-20T07:34:55.674Z,95882.56
2022-08-20T07:37:22.190Z,95887.66
2022-08-20T07:39:49.661Z,95886.50
2022-08-20T07:42:16.193Z,95892.31
2022-08-20T07:44:42.683Z,95892.31
2022-08-20T07:47:09.653Z,95889.16
2022-08-20T07:49:40.424Z,95894.38
2022-08-20T07:52:07.226Z,95890.06
2022-08-20T07:54:36.745Z,95898.22
2022-08-20T07:57:04.039Z,95901.50
2022-08-20T07:59:31.563Z,95900.56
2022-08-20T08:01:58.050Z,95900.69
2022-08-20T08:04:25.677Z,95897.44
2022-08-20T08:06:52.872Z,95897.56
2022-08-20T08:09:19.416Z,95900.09
2022-08-20T08:11:49.753Z,95902.44
2022-08-20T08:14:21.518Z,95906.75
2022-08-20T08:16:48.033Z,95900.25
2022-08-20T08:19:18.134Z,95903.72
2022-08-20T08:21:44.956Z,95906.09
2022-08-20T08:24:14.390Z,95906.66
2022-08-20T08:26:44.094Z,95905.84
2022-08-20T08:29:11.318Z,95918.66
2022-08-20T08:31:37.977Z,95909.56
2022-08-20T08:34:04.918Z,95909.69
2022-08-20T08:36:31.431Z,95910.50
2022-08-20T08:38:58.056Z,95918.16
2022-08-20T08:41:34.219Z,95917.13
2022-08-20T08:44:09.467Z,95916.81
2022-08-20T08:46:41.973Z,95914.56
2022-08-20T08:49:15.413Z,95914.56
2022-08-20T08:51:50.109Z,95922.25
2022-08-20T08:54:22.127Z,95929.50
2022-08-20T08:56:50.121Z,95931.59
2022-08-20T08:59:19.460Z,95929.22
2022-08-20T09:01:55.540Z,95929.44
2022-08-20T09:04:29.131Z,95937.38
2022-08-20T09:06:55.937Z,95933.75
2022-08-20T09:09:27.830Z,95933.28
2022-08-20T09:12:07.085Z,95939.03
2022-08-20T09:14:34.355Z,95937.63
2022-08-20T09:17:00.862Z,95929.38
2022-08-20T09:19:27.644Z,95941.47
2022-08-20T09:21:54.144Z,95930.75
2022-08-20T09:24:20.848Z,95928.50
2022-08-20T09:26:47.385Z,95931.78
2022-08-20T09:29:14.057Z,95928.50
2022-08-20T09:31:41.672Z,95939.44
2022-08-20T09:34:08.182Z,95940.22
2022-08-20T09:36:34.710Z,95930.66
2022-08-20T09:39:02.790Z,95939.22
2022-08-20T09:41:30.477Z,95937.19
2022-08-20T09:43:57.082Z,95934.31
2022-08-20T09:46:26.917Z,95933.16
2022-08-20T09:48:54.455Z,95928.56
2022-08-20T09:51:22.390Z,95929.94
2022-08-20T09:53:49.358Z,95930.03
2022-08-20T09:56:17.239Z,95926.94
2022-08-20T09:58:53.075Z,95920.78
2022-08-20T10:01:22.022Z,95923.34
2022-08-20T10:03:50.350Z,95924.50
2022-08-20T10:06:18.891Z,95913.69
2022-08-20T10:08:45.550Z,95923.22
2022-08-20T10:11:12.222Z,95918.19
2022-08-20T10:13:38.792Z,95922.03
2022-08-20T10:16:05.546Z,95923.66
2022-08-20T10:18:32.071Z,95923.34
2022-08-20T10:20:58.573Z,95916.31
2022-08-20T10:23:25.070Z,95917.16
2022-08-20T10:25:51.558Z,95915.69
2022-08-20T10:28:20.231Z,95907.19
2022-08-20T10:30:46.734Z,95910.13
2022-08-20T10:33:13.226Z,95903.28
2022-08-20T10:35:39.727Z,95904.00
2022-08-20T10:38:06.200Z,95900.78
2022-08-20T10:40:32.685Z,95900.94
2022-08-20T10:42:59.244Z,95896.13
2022-08-20T10:45:25.785Z,95904.09
2022-08-20T10:47:52.323Z,95897.84
2022-08-20T10:50:19.140Z,95903.34
2022-08-20T10:52:46.139Z,95901.00
2022-08-20T10:55:13.016Z,95899.72
2022-08-20T10:57:41.160Z,95894.34
2022-08-20T11:00:08.651Z,95887.34
2022-08-20T11:02:35.169Z,95884.75
2022-08-20T11:05:01.827Z,95889.78
2022-08-20T11:07:54.987Z,95882.28
2022-08-20T11:10:23.131Z,95889.16
2022-08-20T11:12:49.621Z,95886.38
2022-08-20T11:15:16.169Z,95884.59
2022-08-20T11:17:44.874Z,95871.81
2022-08-20T11:20:14.467Z,95879.44
2022-08-20T11:22:40.954Z,95878.53
2022-08-20T11:25:07.918Z,95883.91
2022-08-20T11:27:39.260Z,95883.59
2022-08-20T11:30:08.770Z,95875.88
2022-08-20T11:32:35.765Z,95872.22
2022-08-20T11:35:13.779Z,95871.97
2022-08-20T11:37:49.280Z,95874.47
2022-08-20T11:40:15.877Z,95872.72
2022-08-20T11:43:04.342Z,95868.34
2022-08-20T11:45:29.043Z,95877.56
2022-08-20T11:47:55.686Z,95872.03
2022-08-20T11:50:22.443Z,95865.22
2022-08-20T11:52:49.060Z,95870.72
2022-08-20T11:55:17.034Z,95863.72
2022-08-20T11:57:47.200Z,95863.88
2022-08-20T12:00:18.739Z,95870.72
2022-08-20T12:02:45.250Z,95877.88
2022-08-20T12:05:12.655Z,95871.41
2022-08-20T12:07:39.419Z,95876.09
2022-08-20T12:10:07.513Z,95871.13
2022-08-20T12:12:34.029Z,95872.25
2022-08-20T12:15:00.540Z,95861.75
2022-08-20T12:17:29.426Z,95872.63
2022-08-20T12:19:58.978Z,95866.69
2022-08-20T12:22:26.186Z,95864.69
2022-08-20T12:24:54.337Z,95866.19
2022-08-20T12:27:30.449Z,95868.31
2022-08-20T12:30:00.238Z,95864.69
2022-08-20T12:32:29.043Z,95864.13
2022-08-20T12:34:56.191Z,95869.50
2022-08-20T12:37:25.830Z,95876.75
2022-08-20T12:39:55.098Z,95870.78
2022-08-20T12:42:22.566Z,95870.09
2022-08-20T12:44:49.284Z,95863.88
2022-08-20T12:47:22.825Z,95858.06
2022-08-20T12:49:56.053Z,95864.13
2022-08-20T12:52:24.995Z,95863.75
2022-08-20T12:54:51.738Z,95865.44
2022-08-20T12:57:36.200Z,95869.25
2022-08-20T13:00:09.774Z,95860.41
2022-08-20T13:02:37.593Z,95873.38
2022-08-20T13:05:06.007Z,95865.06
2022-08-20T13:07:33.266Z,95856.41
2022-08-20T13:10:00.892Z,95863.84
2022-08-20T13:12:27.772Z,95858.97
2022-08-20T13:14:54.342Z,95852.69
2022-08-20T13:17:38.235Z,95851.13
2022-08-20T13:20:09.133Z,95853.88
2022-08-20T13:22:35.871Z,95857.25
2022-08-20T13:25:02.879Z,95855.44
2022-08-20T13:27:29.506Z,95855.34
2022-08-20T13:29:58.602Z,95847.88
2022-08-20T13:32:25.977Z,95851.03
2022-08-20T13:34:52.714Z,95844.28
2022-08-20T13:37:26.199Z,95847.09
2022-08-20T13:39:58.095Z,95846.47
2022-08-20T13:42:25.434Z,95837.22
2022-08-20T13:44:51.947Z,95834.06
2022-08-20T13:47:26.631Z,95830.25
2022-08-20T13:50:00.626Z,95831.63
2022-08-20T13:52:27.681Z,95834.38
2022-08-20T13:54:54.672Z,95832.16
2022-08-20T13:57:23.522Z,95831.84
2022-08-20T13:59:54.872Z,95825.00
2022-08-20T14:02:22.272Z,95831.56
2022-08-20T14:04:50.131Z,95822.53
2022-08-20T14:07:19.432Z,95819.25
2022-08-20T14:09:50.410Z,95826.94
2022-08-20T14:12:17.256Z,95828.06
2022-08-20T14:14:44.334Z,95833.84
2022-08-20T14:17:27.726Z,95830.84
2022-08-20T14:20:01.464Z,95833.13
2022-08-20T14:22:29.694Z,95841.19
2022-08-20T14:24:56.500Z,95828.78
2022-08-20T14:27:27.776Z,95824.94
2022-08-20T14:29:58.195Z,95827.59
2022-08-20T14:32:24.864Z,95822.22
2022-08-20T14:34:51.369Z,95824.09
2022-08-20T14:37:24.602Z,95818.63
2022-08-20T14:39:53.715Z,95819.47
2022-08-20T14:42:20.604Z,95817.56
2022-08-20T14:44:47.092Z,95831.13
2022-08-20T14:47:13.534Z,95824.00
2022-08-20T14:49:40.101Z,95835.06
2022-08-20T14:52:06.808Z,95829.22
2022-08-20T14:54:33.859Z,95823.31
2022-08-20T14:57:02.198Z,95827.97
2022-08-20T14:59:29.503Z,95820.69
2022-08-20T15:01:56.155Z,95823.47
2022-08-20T15:04:23.479Z,95815.94
2022-08-20T15:06:54.637Z,95821.44
2022-08-20T15:09:21.495Z,95807.81
2022-08-20T15:11:48.194Z,95803.56
2022-08-20T15:14:15.062Z,95813.31
2022-08-20T15:16:45.017Z,95816.56
2022-08-20T15:19:11.543Z,95797.00
2022-08-20T15:21:45.293Z,95805.75
2022-08-20T15:24:19.154Z,95799.19
2022-08-20T15:26:46.631Z,95791.78
2022-08-20T15:29:22.724Z,95785.66
2022-08-20T15:31:50.139Z,95785.03
2022-08-20T15:34:18.069Z,95782.50
2022-08-20T15:36:45.376Z,95771.78
2022-08-20T15:39:11.881Z,95771.91
2022-08-20T15:41:38.435Z,95779.34
2022-08-20T15:44:04.954Z,95774.59
2022-08-20T15:46:36.088Z,95774.22
2022-08-20T15:49:04.468Z,95767.78
2022-08-20T15:51:42.974Z,95769.88
2022-08-20T15:54:24.840Z,95765.75
2022-08-20T15:57:33.503Z,95766.31
2022-08-20T16:00:21.138Z,95756.16
2022-08-20T16:03:06.216Z,95759.91
2022-08-20T16:05:43.199Z,95766.97
2022-08-20T16:08:38.345Z,95767.69
2022-08-20T16:11:46.506Z,95768.13
2022-08-20T16:14:21.290Z,95776.00
2022-08-20T16:16:56.734Z,95777.78
2022-08-20T16:19:40.358Z,95769.91
2022-08-20T16:22:13.388Z,95781.00
2022-08-20T16:24:39.883Z,95777.47
2022-08-20T16:27:29.334Z,95785.59
2022-08-20T16:30:03.407Z,95787.19
2022-08-20T16:32:52.703Z,95773.44
2022-08-20T16:35:30.644Z,95781.03
2022-08-20T16:38:23.615Z,95776.00
2022-08-20T16:40:56.658Z,95771.63
2022-08-20T16:43:32.365Z,95780.41
2022-08-20T16:46:08.578Z,95777.09
2022-08-20T16:48:41.658Z,95780.16
2022-08-20T16:51:26.118Z,95791.47
2022-08-20T16:53:52.615Z,95776.59
2022-08-20T16:56:37.741Z,95773.69
2022-08-20T16:59:06.848Z,95779.72
2022-08-20T17:01:33.622Z,95776.03
2022-08-20T17:04:00.176Z,95776.53
2022-08-20T17:06:35.537Z,95767.38
2022-08-20T17:09:07.503Z,95768.47
2022-08-20T17:11:36.680Z,95768.41
2022-08-20T17:14:05.922Z,95763.53
2022-08-20T17:16:39.678Z,95768.41
2022-08-20T17:19:13.085Z,95767.38
2022-08-20T17:21:40.803Z,95757.03
2022-08-20T17:24:19.943Z,95766.25
2022-08-20T17:27:00.628Z,95759.22
2022-08-20T17:29:33.440Z,95762.22
2022-08-20T17:32:07.821Z,95765.22
2022-08-20T17:34:45.659Z,95768.19
2022-08-20T17:37:29.557Z,95764.09
2022-08-20T17:40:14.452Z,95756.00
2022-08-20T17:42:54.751Z,95760.38
2022-08-20T17:45:25.988Z,95762.47
2022-08-20T17:47:54.618Z,95758.03
2022-08-20T17:50:29.619Z,95754.13
2022-08-20T17:53:04.695Z,95744.88
2022-08-20T17:55:35.213Z,95746.50
2022-08-20T17:58:06.674Z,95748.69
2022-08-20T18:00:33.905Z,95755.22
2022-08-20T18:03:29.517Z,95754.72
2022-08-20T18:06:17.714Z,95744.81
2022-08-20T18:09:04.147Z,95751.66
2022-08-20T18:11:56.099Z,95754.66
2022-08-20T18:14:44.248Z,95751.97
2022-08-20T18:17:30.999Z,95752.00
2022-08-20T18:20:19.450Z,95742.53
2022-08-20T18:22:55.159Z,95750.59
2022-08-20T18:25:30.493Z,95751.56
2022-08-20T18:28:28.863Z,95755.13
2022-08-20T18:30:59.139Z,95762.66
2022-08-20T18:33:32.526Z,95761.97
2022-08-20T18:36:12.142Z,95758.63
2022-08-20T18:38:41.550Z,95755.13
2022-08-20T18:41:09.897Z,95762.03
2022-08-20T18:43:37.117Z,95760.00
2022-08-20T18:46:13.449Z,95764.28
2022-08-20T18:48:55.386Z,95760.47
2022-08-20T18:51:31.740Z,95768.06
2022-08-20T18:53:58.377Z,95765.41
2022-08-20T18:56:42.526Z,95757.28
2022-08-20T18:59:18.569Z,95763.22
2022-08-20T19:01:48.205Z,95765.38
2022-08-20T19:04:31.147Z,95769.56
2022-08-20T19:07:04.290Z,95766.00
2022-08-20T19:09:58.096Z,95774.75
2022-08-20T19:12:58.107Z,95770.41
2022-08-20T19:15:27.477Z,95777.47
2022-08-20T19:18:14.843Z,95775.63
2022-08-20T19:20:54.399Z,95777.28
2022-08-20T19:23:24.079Z,95777.78
2022-08-20T19:26:12.539Z,95775.19
2022-08-20T19:28:56.711Z,95772.22
2022-08-20T19:31:26.927Z,95775.00
2022-08-20T19:34:22.607Z,95772.00
2022-08-20T19:37:35.244Z,95779.41
2022-08-20T19:39:58.291Z,95772.22
2022-08-20T19:42:32.888Z,95781.72
2022-08-20T19:45:31.792Z,95784.78
2022-08-20T19:48:27.258Z,95783.53
2022-08-20T19:51:20.174Z,95784.34
2022-08-20T19:53:49.533Z,95786.66
2022-08-20T19:56:20.737Z,95783.88
2022-08-20T19:59:03.725Z,95792.22
2022-08-20T20:01:31.127Z,95788.06
2022-08-20T20:04:06.822Z,95798.41
2022-08-20T20:06:44.804Z,95798.78
2022-08-20T20:09:23.274Z,95790.31
2022-08-20T20:11:54.797Z,95793.56
2022-08-20T20:14:27.861Z,95784.59
2022-08-20T20:16:56.073Z,95793.84
2022-08-20T20:19:27.837Z,95790.47
2022-08-20T20:22:18.832Z,95797.09
2022-08-20T20:24:57.391Z,95787.16
2022-08-20T20:27:27.536Z,95792.53
2022-08-20T20:30:07.239Z,95792.53
2022-08-20T20:32:34.066Z,95797.91
2022-08-20T20:35:04.654Z,95794.66
2022-08-20T20:37:50.302Z,95784.41
2022-08-20T20:40:49.334Z,95783.25
2022-08-20T20:43:29.429Z,95787.03
2022-08-20T20:46:07.958Z,95792.25
2022-08-20T20:49:12.292Z,95783.47
2022-08-20T20:51:42.509Z,95779.25
2022-08-20T20:54:34.791Z,95789.16
2022-08-20T20:57:08.021Z,95790.00
2022-08-20T20:59:36.395Z,95786.25
2022-08-20T21:02:03.802Z,95786.25
2022-08-20T21:04:30.410Z,95790.00
2022-08-20T21:07:04.685Z,95779.25
2022-08-20T21:09:31.201Z,95781.28
2022-08-20T21:11:57.731Z,95785.69
2022-08-20T21:14:24.683Z,95785.91
2022-08-20T21:16:53.021Z,95790.66
2022-08-20T21:19:20.732Z,95792.38
2022-08-20T21:21:47.265Z,95779.06
2022-08-20T21:24:13.825Z,95793.41
2022-08-20T21:26:41.599Z,95790.81
2022-08-20T21:29:13.103Z,95788.13
2022-08-20T21:31:45.285Z,95782.69
2022-08-20T21:34:15.501Z,95786.41
2022-08-20T21:36:42.613Z,95785.13
2022-08-20T21:39:10.296Z,95786.09
2022-08-20T21:41:38.659Z,95784.56
2022-08-20T21:44:12.227Z,95785.13
2022-08-20T21:46:38.949Z,95787.72
2022-08-20T21:49:05.472Z,95789.75
2022-08-20T21:51:33.073Z,95788.19
2022-08-20T21:53:59.722Z,95793.75
2022-08-20T21:56:26.282Z,95795.94
2022-08-20T21:58:55.149Z,95789.81
2022-08-20T22:01:22.627Z,95779.44
2022-08-20T22:03:49.553Z,95783.31
2022-08-20T22:06:19.366Z,95792.56
2022-08-20T22:08:45.887Z,95790.56
2022-08-20T22:11:14.232Z,95786.22
2022-08-20T22:13:41.775Z,95786.31
2022-08-20T22:16:10.577Z,95783.63
2022-08-20T22:18:38.212Z,95791.09
2022-08-20T22:21:09.828Z,95786.22
2022-08-20T22:23:36.824Z,95787.03
2022-08-20T22:26:03.371Z,95780.84
2022-08-20T22:28:29.892Z,95785.72
2022-08-20T22:30:57.082Z,95782.00
2022-08-20T22:33:23.753Z,95787.84
2022-08-20T22:35:56.271Z,95787.84
2022-08-20T22:38:23.417Z,95780.94
2022-08-20T22:40:50.339Z,95778.56
2022-08-20T22:43:16.965Z,95778.94
2022-08-20T22:45:47.177Z,95778.56
2022-08-20T22:48:17.597Z,95772.47
2022-08-20T22:50:45.155Z,95771.25
2022-08-20T22:53:14.026Z,95767.38
2022-08-20T22:55:40.835Z,95763.13
2022-08-20T22:58:08.298Z,95763.28
2022-08-20T23:00:37.748Z,95763.63
2022-08-20T23:03:05.516Z,95761.47
2022-08-20T23:05:35.351Z,95754.00
2022-08-20T23:08:02.898Z,95751.09
2022-08-20T23:10:31.173Z,95761.78
2022-08-20T23:12:57.821Z,95752.84
2022-08-20T23:15:26.800Z,95751.72
2022-08-20T23:18:02.406Z,95751.78
2022-08-20T23:20:29.299Z,95746.50
2022-08-20T23:22:56.199Z,95744.38
2022-08-20T23:25:23.115Z,95742.75
2022-08-20T23:27:55.075Z,95752.44
2022-08-20T23:30:23.201Z,95748.47
2022-08-20T23:32:50.200Z,95751.38
2022-08-20T23:35:16.762Z,95743.91
2022-08-20T23:37:47.814Z,95744.38
2022-08-20T23:40:16.664Z,95744.88
2022-08-20T23:42:43.495Z,95745.03
2022-08-20T23:45:10.939Z,95740.94
2022-08-20T23:47:37.523Z,95737.78
2022-08-20T23:50:06.270Z,95749.84
2022-08-20T23:52:32.785Z,95745.78
2022-08-20T23:54:59.315Z,95744.34
2022-08-20T23:57:25.923Z,95739.66
2022-08-20T23:59:52.866Z,95736.25
